sensor_id;sensor_type;location;lat;lon;timestamp;P1;durP1;ratioP1;P2;durP2;ratioP2
4313;SDS011;2170;48.794;9.182;2022-11-21T00:02:12;1.43;;;1.37;;
4313;SDS011;2170;48.794;9.182;2022-11-21T00:04:39;1.13;;;1.03;;
4313;SDS011;2170;48.794;9.182;2022-11-21T00:07:06;0.87;;;0.87;;
4313;SDS011;2170;48.794;9.182;2022-11-21T00:09:34;1.80;;;1.20;;
4313;SDS011;2170;48.794;9.182;2022-11-21T00:12:01;1.10;;;1.10;;
4313;SDS011;2170;48.794;9.182;2022-11-21T00:14:28;1.27;;;1.10;;
4313;SDS011;2170;48.794;9.182;2022-11-21T00:16:55;1.10;;;1.10;;
4313;SDS011;2170;48.794;9.182;2022-11-21T00:19:22;1.30;;;1.30;;
4313;SDS011;2170;48.794;9.182;2022-11-21T00:21:49;1.13;;;1.03;;
4313;SDS011;2170;48.794;9.182;2022-11-21T00:24:17;1.03;;;1.03;;
4313;SDS011;2170;48.794;9.182;2022-11-21T00:26:45;2.10;;;1.00;;
4313;SDS011;2170;48.794;9.182;2022-11-21T00:29:12;1.07;;;1.00;;
4313;SDS011;2170;48.794;9.182;2022-11-21T00:31:39;1.63;;;1.17;;
4313;SDS011;2170;48.794;9.182;2022-11-21T00:34:07;1.10;;;1.00;;
4313;SDS011;2170;48.794;9.182;2022-11-21T00:36:40;1.00;;;1.00;;
4313;SDS011;2170;48.794;9.182;2022-11-21T00:39:07;0.93;;;0.90;;
4313;SDS011;2170;48.794;9.182;2022-11-21T00:41:34;1.43;;;1.00;;
4313;SDS011;2170;48.794;9.182;2022-11-21T00:44:03;0.87;;;0.87;;
4313;SDS011;2170;48.794;9.182;2022-11-21T00:46:30;1.93;;;0.80;;
4313;SDS011;2170;48.794;9.182;2022-11-21T00:48:57;0.93;;;0.93;;
4313;SDS011;2170;48.794;9.182;2022-11-21T00:51:24;1.10;;;1.00;;
4313;SDS011;2170;48.794;9.182;2022-11-21T00:53:51;0.80;;;0.80;;
4313;SDS011;2170;48.794;9.182;2022-11-21T00:56:18;1.13;;;0.90;;
4313;SDS011;2170;48.794;9.182;2022-11-21T00:58:45;0.90;;;0.90;;
4313;SDS011;2170;48.794;9.182;2022-11-21T01:01:14;3.40;;;1.00;;
4313;SDS011;2170;48.794;9.182;2022-11-21T01:03:41;0.80;;;0.80;;
4313;SDS011;2170;48.794;9.182;2022-11-21T01:06:11;0.93;;;0.93;;
4313;SDS011;2170;48.794;9.182;2022-11-21T01:08:39;1.07;;;1.07;;
4313;SDS011;2170;48.794;9.182;2022-11-21T01:11:07;1.00;;;1.00;;
4313;SDS011;2170;48.794;9.182;2022-11-21T01:13:34;1.70;;;0.90;;
4313;SDS011;2170;48.794;9.182;2022-11-21T01:16:03;1.50;;;1.40;;
4313;SDS011;2170;48.794;9.182;2022-11-21T01:18:31;0.80;;;0.80;;
4313;SDS011;2170;48.794;9.182;2022-11-21T01:20:59;0.87;;;0.87;;
4313;SDS011;2170;48.794;9.182;2022-11-21T01:23:26;2.00;;;0.97;;
4313;SDS011;2170;48.794;9.182;2022-11-21T01:25:53;1.00;;;1.00;;
4313;SDS011;2170;48.794;9.182;2022-11-21T01:28:20;1.60;;;0.87;;
4313;SDS011;2170;48.794;9.182;2022-11-21T01:30:47;1.30;;;1.20;;
4313;SDS011;2170;48.794;9.182;2022-11-21T01:33:14;1.07;;;1.07;;
4313;SDS011;2170;48.794;9.182;2022-11-21T01:35:42;0.77;;;0.77;;
4313;SDS011;2170;48.794;9.182;2022-11-21T01:38:10;1.00;;;1.00;;
4313;SDS011;2170;48.794;9.182;2022-11-21T01:40:37;1.07;;;0.90;;
4313;SDS011;2170;48.794;9.182;2022-11-21T01:43:08;2.20;;;1.00;;
4313;SDS011;2170;48.794;9.182;2022-11-21T01:48:29;1.10;;;1.10;;
4313;SDS011;2170;48.794;9.182;2022-11-21T01:51:00;1.40;;;1.20;;
4313;SDS011;2170;48.794;9.182;2022-11-21T01:53:29;1.10;;;1.10;;
4313;SDS011;2170;48.794;9.182;2022-11-21T01:55:56;1.80;;;1.00;;
4313;SDS011;2170;48.794;9.182;2022-11-21T01:58:23;1.27;;;1.20;;
4313;SDS011;2170;48.794;9.182;2022-11-21T02:00:51;1.30;;;1.23;;
4313;SDS011;2170;48.794;9.182;2022-11-21T02:03:18;0.90;;;0.90;;
4313;SDS011;2170;48.794;9.182;2022-11-21T02:05:46;1.63;;;1.20;;
4313;SDS011;2170;48.794;9.182;2022-11-21T02:08:16;1.23;;;1.17;;
4313;SDS011;2170;48.794;9.182;2022-11-21T02:10:45;1.70;;;1.03;;
4313;SDS011;2170;48.794;9.182;2022-11-21T02:13:13;1.70;;;1.20;;
4313;SDS011;2170;48.794;9.182;2022-11-21T02:15:40;1.50;;;1.27;;
4313;SDS011;2170;48.794;9.182;2022-11-21T02:18:08;1.40;;;0.90;;
4313;SDS011;2170;48.794;9.182;2022-11-21T02:20:35;2.67;;;1.17;;
4313;SDS011;2170;48.794;9.182;2022-11-21T02:23:04;1.67;;;1.57;;
4313;SDS011;2170;48.794;9.182;2022-11-21T02:25:36;1.20;;;1.20;;
4313;SDS011;2170;48.794;9.182;2022-11-21T02:28:06;1.53;;;1.27;;
4313;SDS011;2170;48.794;9.182;2022-11-21T02:30:34;1.03;;;1.03;;
4313;SDS011;2170;48.794;9.182;2022-11-21T02:33:02;0.80;;;0.80;;
4313;SDS011;2170;48.794;9.182;2022-11-21T02:35:29;0.90;;;0.90;;
4313;SDS011;2170;48.794;9.182;2022-11-21T02:37:59;1.17;;;1.17;;
4313;SDS011;2170;48.794;9.182;2022-11-21T02:40:28;1.30;;;1.20;;
4313;SDS011;2170;48.794;9.182;2022-11-21T02:43:00;1.10;;;1.10;;
4313;SDS011;2170;48.794;9.182;2022-11-21T02:45:29;1.40;;;1.30;;
4313;SDS011;2170;48.794;9.182;2022-11-21T02:47:57;1.10;;;1.10;;
4313;SDS011;2170;48.794;9.182;2022-11-21T02:50:26;1.10;;;1.00;;
4313;SDS011;2170;48.794;9.182;2022-11-21T02:52:53;1.07;;;1.07;;
4313;SDS011;2170;48.794;9.182;2022-11-21T02:55:21;1.13;;;0.93;;
4313;SDS011;2170;48.794;9.182;2022-11-21T02:57:48;0.93;;;0.93;;
4313;SDS011;2170;48.794;9.182;2022-11-21T03:00:17;1.13;;;1.13;;
4313;SDS011;2170;48.794;9.182;2022-11-21T03:02:44;1.10;;;1.10;;
4313;SDS011;2170;48.794;9.182;2022-11-21T03:05:12;1.30;;;0.90;;
4313;SDS011;2170;48.794;9.182;2022-11-21T03:07:40;0.90;;;0.90;;
4313;SDS011;2170;48.794;9.182;2022-11-21T03:10:07;0.83;;;0.83;;
4313;SDS011;2170;48.794;9.182;2022-11-21T03:12:34;0.80;;;0.80;;
4313;SDS011;2170;48.794;9.182;2022-11-21T03:15:01;1.30;;;0.90;;
4313;SDS011;2170;48.794;9.182;2022-11-21T03:17:30;3.20;;;1.10;;
4313;SDS011;2170;48.794;9.182;2022-11-21T03:19:57;1.17;;;1.07;;
4313;SDS011;2170;48.794;9.182;2022-11-21T03:22:24;1.07;;;1.07;;
4313;SDS011;2170;48.794;9.182;2022-11-21T03:24:51;0.80;;;0.80;;
4313;SDS011;2170;48.794;9.182;2022-11-21T03:27:18;1.00;;;1.00;;
4313;SDS011;2170;48.794;9.182;2022-11-21T03:29:45;0.63;;;0.63;;
4313;SDS011;2170;48.794;9.182;2022-11-21T03:32:12;0.90;;;0.90;;
4313;SDS011;2170;48.794;9.182;2022-11-21T03:34:40;0.97;;;0.97;;
4313;SDS011;2170;48.794;9.182;2022-11-21T03:37:08;1.27;;;0.87;;
4313;SDS011;2170;48.794;9.182;2022-11-21T03:39:35;0.70;;;0.70;;
4313;SDS011;2170;48.794;9.182;2022-11-21T03:42:02;1.93;;;0.97;;
4313;SDS011;2170;48.794;9.182;2022-11-21T03:44:29;0.90;;;0.90;;
4313;SDS011;2170;48.794;9.182;2022-11-21T03:46:56;1.33;;;1.03;;
4313;SDS011;2170;48.794;9.182;2022-11-21T03:49:23;0.90;;;0.90;;
4313;SDS011;2170;48.794;9.182;2022-11-21T03:51:51;1.00;;;1.00;;
4313;SDS011;2170;48.794;9.182;2022-11-21T03:54:19;0.73;;;0.73;;
4313;SDS011;2170;48.794;9.182;2022-11-21T03:56:46;1.00;;;0.97;;
4313;SDS011;2170;48.794;9.182;2022-11-21T03:59:13;1.07;;;1.07;;
4313;SDS011;2170;48.794;9.182;2022-11-21T04:01:40;0.83;;;0.83;;
4313;SDS011;2170;48.794;9.182;2022-11-21T04:04:07;1.00;;;1.00;;
4313;SDS011;2170;48.794;9.182;2022-11-21T04:06:34;0.93;;;0.90;;
4313;SDS011;2170;48.794;9.182;2022-11-21T04:09:02;1.00;;;1.00;;
4313;SDS011;2170;48.794;9.182;2022-11-21T04:11:29;1.07;;;1.03;;
4313;SDS011;2170;48.794;9.182;2022-11-21T04:13:56;0.77;;;0.77;;
4313;SDS011;2170;48.794;9.182;2022-11-21T04:16:23;0.90;;;0.90;;
4313;SDS011;2170;48.794;9.182;2022-11-21T04:18:51;1.07;;;1.07;;
4313;SDS011;2170;48.794;9.182;2022-11-21T04:21:18;0.90;;;0.90;;
4313;SDS011;2170;48.794;9.182;2022-11-21T04:23:45;0.73;;;0.73;;
4313;SDS011;2170;48.794;9.182;2022-11-21T04:26:13;1.13;;;0.90;;
4313;SDS011;2170;48.794;9.182;2022-11-21T04:28:40;1.03;;;1.03;;
4313;SDS011;2170;48.794;9.182;2022-11-21T04:31:07;0.87;;;0.87;;
4313;SDS011;2170;48.794;9.182;2022-11-21T04:33:35;1.00;;;1.00;;
4313;SDS011;2170;48.794;9.182;2022-11-21T04:36:02;1.27;;;1.17;;
4313;SDS011;2170;48.794;9.182;2022-11-21T04:38:29;1.00;;;1.00;;
4313;SDS011;2170;48.794;9.182;2022-11-21T04:40:56;1.03;;;1.03;;
4313;SDS011;2170;48.794;9.182;2022-11-21T04:43:24;0.70;;;0.70;;
4313;SDS011;2170;48.794;9.182;2022-11-21T04:45:51;1.13;;;1.13;;
4313;SDS011;2170;48.794;9.182;2022-11-21T04:48:18;1.27;;;1.27;;
4313;SDS011;2170;48.794;9.182;2022-11-21T04:50:45;3.97;;;1.40;;
4313;SDS011;2170;48.794;9.182;2022-11-21T04:53:12;0.90;;;0.90;;
4313;SDS011;2170;48.794;9.182;2022-11-21T04:55:39;1.00;;;1.00;;
4313;SDS011;2170;48.794;9.182;2022-11-21T04:58:07;1.27;;;1.00;;
4313;SDS011;2170;48.794;9.182;2022-11-21T05:00:35;1.10;;;1.10;;
4313;SDS011;2170;48.794;9.182;2022-11-21T05:03:02;1.70;;;1.03;;
4313;SDS011;2170;48.794;9.182;2022-11-21T05:05:30;1.10;;;1.03;;
4313;SDS011;2170;48.794;9.182;2022-11-21T05:07:57;2.10;;;1.20;;
4313;SDS011;2170;48.794;9.182;2022-11-21T05:10:24;1.50;;;1.40;;
4313;SDS011;2170;48.794;9.182;2022-11-21T05:12:57;1.60;;;1.50;;
4313;SDS011;2170;48.794;9.182;2022-11-21T05:15:43;3.20;;;1.30;;
4313;SDS011;2170;48.794;9.182;2022-11-21T05:18:11;2.20;;;1.40;;
4313;SDS011;2170;48.794;9.182;2022-11-21T05:20:38;1.40;;;1.30;;
4313;SDS011;2170;48.794;9.182;2022-11-21T05:23:05;1.73;;;1.50;;
4313;SDS011;2170;48.794;9.182;2022-11-21T05:25:32;1.67;;;1.57;;
4313;SDS011;2170;48.794;9.182;2022-11-21T05:27:59;1.50;;;1.30;;
4313;SDS011;2170;48.794;9.182;2022-11-21T05:30:26;1.50;;;1.40;;
4313;SDS011;2170;48.794;9.182;2022-11-21T05:32:55;2.00;;;1.90;;
4313;SDS011;2170;48.794;9.182;2022-11-21T05:35:22;1.43;;;1.40;;
4313;SDS011;2170;48.794;9.182;2022-11-21T05:37:53;1.23;;;1.23;;
4313;SDS011;2170;48.794;9.182;2022-11-21T05:40:20;3.50;;;1.57;;
4313;SDS011;2170;48.794;9.182;2022-11-21T05:42:48;1.50;;;1.40;;
4313;SDS011;2170;48.794;9.182;2022-11-21T05:45:32;4.30;;;1.50;;
4313;SDS011;2170;48.794;9.182;2022-11-21T05:48:00;1.40;;;1.30;;
4313;SDS011;2170;48.794;9.182;2022-11-21T05:50:31;1.40;;;1.30;;
4313;SDS011;2170;48.794;9.182;2022-11-21T05:52:59;1.67;;;1.57;;
4313;SDS011;2170;48.794;9.182;2022-11-21T05:55:27;1.30;;;1.30;;
4313;SDS011;2170;48.794;9.182;2022-11-21T05:57:56;1.30;;;1.30;;
4313;SDS011;2170;48.794;9.182;2022-11-21T06:00:23;4.73;;;1.73;;
4313;SDS011;2170;48.794;9.182;2022-11-21T06:02:50;1.50;;;1.40;;
4313;SDS011;2170;48.794;9.182;2022-11-21T06:05:36;1.30;;;1.23;;
4313;SDS011;2170;48.794;9.182;2022-11-21T06:08:03;1.60;;;1.50;;
4313;SDS011;2170;48.794;9.182;2022-11-21T06:10:31;1.70;;;1.60;;
4313;SDS011;2170;48.794;9.182;2022-11-21T06:12:58;4.67;;;1.90;;
4313;SDS011;2170;48.794;9.182;2022-11-21T06:15:25;2.20;;;1.83;;
4313;SDS011;2170;48.794;9.182;2022-11-21T06:17:53;2.23;;;1.97;;
4313;SDS011;2170;48.794;9.182;2022-11-21T06:20:20;3.60;;;2.13;;
4313;SDS011;2170;48.794;9.182;2022-11-21T06:22:48;2.60;;;2.00;;
4313;SDS011;2170;48.794;9.182;2022-11-21T06:25:15;1.50;;;1.40;;
4313;SDS011;2170;48.794;9.182;2022-11-21T06:27:42;1.57;;;1.47;;
4313;SDS011;2170;48.794;9.182;2022-11-21T06:30:09;1.73;;;1.47;;
4313;SDS011;2170;48.794;9.182;2022-11-21T06:32:36;2.37;;;2.20;;
4313;SDS011;2170;48.794;9.182;2022-11-21T06:35:04;3.10;;;1.80;;
4313;SDS011;2170;48.794;9.182;2022-11-21T06:37:31;1.43;;;1.33;;
4313;SDS011;2170;48.794;9.182;2022-11-21T06:39:59;2.53;;;1.40;;
4313;SDS011;2170;48.794;9.182;2022-11-21T06:42:26;3.77;;;1.97;;
4313;SDS011;2170;48.794;9.182;2022-11-21T06:44:53;2.00;;;1.77;;
4313;SDS011;2170;48.794;9.182;2022-11-21T06:47:21;2.33;;;2.13;;
4313;SDS011;2170;48.794;9.182;2022-11-21T06:49:48;1.77;;;1.67;;
4313;SDS011;2170;48.794;9.182;2022-11-21T06:52:15;1.90;;;1.80;;
4313;SDS011;2170;48.794;9.182;2022-11-21T06:54:42;1.77;;;1.63;;
4313;SDS011;2170;48.794;9.182;2022-11-21T06:57:10;3.40;;;2.00;;
4313;SDS011;2170;48.794;9.182;2022-11-21T06:59:37;3.50;;;2.03;;
4313;SDS011;2170;48.794;9.182;2022-11-21T07:02:05;1.87;;;1.60;;
4313;SDS011;2170;48.794;9.182;2022-11-21T07:04:32;2.30;;;2.10;;
4313;SDS011;2170;48.794;9.182;2022-11-21T07:06:59;2.00;;;1.90;;
4313;SDS011;2170;48.794;9.182;2022-11-21T07:09:26;1.63;;;1.53;;
4313;SDS011;2170;48.794;9.182;2022-11-21T07:11:53;1.70;;;1.60;;
4313;SDS011;2170;48.794;9.182;2022-11-21T07:14:41;2.40;;;2.30;;
4313;SDS011;2170;48.794;9.182;2022-11-21T07:17:09;1.90;;;1.80;;
4313;SDS011;2170;48.794;9.182;2022-11-21T07:19:36;2.10;;;1.87;;
4313;SDS011;2170;48.794;9.182;2022-11-21T07:22:03;2.40;;;2.20;;
4313;SDS011;2170;48.794;9.182;2022-11-21T07:24:30;2.40;;;2.20;;
4313;SDS011;2170;48.794;9.182;2022-11-21T07:26:57;3.57;;;2.53;;
4313;SDS011;2170;48.794;9.182;2022-11-21T07:29:25;2.33;;;2.13;;
4313;SDS011;2170;48.794;9.182;2022-11-21T07:31:53;2.70;;;2.50;;
4313;SDS011;2170;48.794;9.182;2022-11-21T07:34:20;2.50;;;2.30;;
4313;SDS011;2170;48.794;9.182;2022-11-21T07:36:47;5.13;;;3.80;;
4313;SDS011;2170;48.794;9.182;2022-11-21T07:39:14;3.23;;;2.97;;
4313;SDS011;2170;48.794;9.182;2022-11-21T07:41:41;2.73;;;2.53;;
4313;SDS011;2170;48.794;9.182;2022-11-21T07:44:08;2.50;;;2.30;;
4313;SDS011;2170;48.794;9.182;2022-11-21T07:46:35;3.40;;;2.23;;
4313;SDS011;2170;48.794;9.182;2022-11-21T07:49:04;2.80;;;2.20;;
4313;SDS011;2170;48.794;9.182;2022-11-21T07:51:31;2.63;;;2.53;;
4313;SDS011;2170;48.794;9.182;2022-11-21T07:53:58;2.80;;;2.60;;
4313;SDS011;2170;48.794;9.182;2022-11-21T07:56:25;2.50;;;2.30;;
4313;SDS011;2170;48.794;9.182;2022-11-21T07:58:52;2.50;;;2.30;;
4313;SDS011;2170;48.794;9.182;2022-11-21T08:01:19;3.27;;;2.30;;
4313;SDS011;2170;48.794;9.182;2022-11-21T08:03:46;2.73;;;2.53;;
4313;SDS011;2170;48.794;9.182;2022-11-21T08:06:15;3.47;;;2.17;;
4313;SDS011;2170;48.794;9.182;2022-11-21T08:08:42;3.17;;;1.87;;
4313;SDS011;2170;48.794;9.182;2022-11-21T08:11:09;3.83;;;3.40;;
4313;SDS011;2170;48.794;9.182;2022-11-21T08:13:36;2.40;;;2.07;;
4313;SDS011;2170;48.794;9.182;2022-11-21T08:16:03;4.10;;;1.93;;
4313;SDS011;2170;48.794;9.182;2022-11-21T08:18:30;3.60;;;2.30;;
4313;SDS011;2170;48.794;9.182;2022-11-21T08:20:59;2.00;;;1.90;;
4313;SDS011;2170;48.794;9.182;2022-11-21T08:23:27;2.53;;;2.33;;
4313;SDS011;2170;48.794;9.182;2022-11-21T08:25:54;2.07;;;1.87;;
4313;SDS011;2170;48.794;9.182;2022-11-21T08:28:22;2.27;;;2.17;;
4313;SDS011;2170;48.794;9.182;2022-11-21T08:30:49;3.57;;;2.00;;
4313;SDS011;2170;48.794;9.182;2022-11-21T08:33:16;4.03;;;2.40;;
4313;SDS011;2170;48.794;9.182;2022-11-21T08:35:43;2.80;;;2.60;;
4313;SDS011;2170;48.794;9.182;2022-11-21T08:38:10;2.63;;;2.40;;
4313;SDS011;2170;48.794;9.182;2022-11-21T08:40:38;2.47;;;1.90;;
4313;SDS011;2170;48.794;9.182;2022-11-21T08:43:06;2.10;;;2.00;;
4313;SDS011;2170;48.794;9.182;2022-11-21T08:45:34;2.47;;;2.27;;
4313;SDS011;2170;48.794;9.182;2022-11-21T08:48:01;2.07;;;1.97;;
4313;SDS011;2170;48.794;9.182;2022-11-21T08:50:28;3.17;;;2.70;;
4313;SDS011;2170;48.794;9.182;2022-11-21T08:52:58;6.33;;;2.37;;
4313;SDS011;2170;48.794;9.182;2022-11-21T08:55:26;2.70;;;2.47;;
4313;SDS011;2170;48.794;9.182;2022-11-21T08:57:54;2.90;;;2.17;;
4313;SDS011;2170;48.794;9.182;2022-11-21T09:00:21;2.87;;;2.20;;
4313;SDS011;2170;48.794;9.182;2022-11-21T09:02:48;3.07;;;1.80;;
4313;SDS011;2170;48.794;9.182;2022-11-21T09:05:15;2.13;;;1.90;;
4313;SDS011;2170;48.794;9.182;2022-11-21T09:07:43;2.33;;;2.13;;
4313;SDS011;2170;48.794;9.182;2022-11-21T09:10:10;3.23;;;2.00;;
4313;SDS011;2170;48.794;9.182;2022-11-21T09:12:37;2.50;;;1.80;;
4313;SDS011;2170;48.794;9.182;2022-11-21T09:15:06;3.70;;;2.03;;
4313;SDS011;2170;48.794;9.182;2022-11-21T09:17:51;2.00;;;1.80;;
4313;SDS011;2170;48.794;9.182;2022-11-21T09:20:32;3.30;;;1.73;;
4313;SDS011;2170;48.794;9.182;2022-11-21T09:23:02;2.33;;;1.73;;
4313;SDS011;2170;48.794;9.182;2022-11-21T09:25:29;2.83;;;1.97;;
4313;SDS011;2170;48.794;9.182;2022-11-21T09:27:57;2.27;;;1.60;;
4313;SDS011;2170;48.794;9.182;2022-11-21T09:30:26;2.03;;;1.83;;
4313;SDS011;2170;48.794;9.182;2022-11-21T09:32:56;1.67;;;1.57;;
4313;SDS011;2170;48.794;9.182;2022-11-21T09:35:24;2.50;;;2.00;;
4313;SDS011;2170;48.794;9.182;2022-11-21T09:37:51;2.07;;;1.90;;
4313;SDS011;2170;48.794;9.182;2022-11-21T09:40:18;6.07;;;2.40;;
4313;SDS011;2170;48.794;9.182;2022-11-21T09:42:52;4.13;;;2.20;;
4313;SDS011;2170;48.794;9.182;2022-11-21T09:45:22;3.90;;;1.80;;
4313;SDS011;2170;48.794;9.182;2022-11-21T09:47:54;3.43;;;1.70;;
4313;SDS011;2170;48.794;9.182;2022-11-21T09:50:24;1.93;;;1.70;;
4313;SDS011;2170;48.794;9.182;2022-11-21T09:52:53;2.00;;;1.70;;
4313;SDS011;2170;48.794;9.182;2022-11-21T09:55:23;2.33;;;2.13;;
4313;SDS011;2170;48.794;9.182;2022-11-21T09:57:52;3.00;;;1.60;;
4313;SDS011;2170;48.794;9.182;2022-11-21T10:00:20;3.83;;;1.70;;
4313;SDS011;2170;48.794;9.182;2022-11-21T10:02:47;3.03;;;1.73;;
4313;SDS011;2170;48.794;9.182;2022-11-21T10:05:16;4.30;;;1.63;;
4313;SDS011;2170;48.794;9.182;2022-11-21T10:07:43;3.90;;;2.03;;
4313;SDS011;2170;48.794;9.182;2022-11-21T10:13:05;3.30;;;2.40;;
4313;SDS011;2170;48.794;9.182;2022-11-21T10:15:36;3.23;;;1.60;;
4313;SDS011;2170;48.794;9.182;2022-11-21T10:18:27;3.17;;;1.63;;
4313;SDS011;2170;48.794;9.182;2022-11-21T10:20:59;2.90;;;1.53;;
4313;SDS011;2170;48.794;9.182;2022-11-21T10:23:32;5.00;;;3.20;;
4313;SDS011;2170;48.794;9.182;2022-11-21T10:26:05;2.50;;;1.60;;
4313;SDS011;2170;48.794;9.182;2022-11-21T10:28:37;3.13;;;1.87;;
4313;SDS011;2170;48.794;9.182;2022-11-21T10:31:06;2.03;;;1.83;;
4313;SDS011;2170;48.794;9.182;2022-11-21T10:33:34;3.10;;;1.77;;
4313;SDS011;2170;48.794;9.182;2022-11-21T10:36:06;2.97;;;1.37;;
4313;SDS011;2170;48.794;9.182;2022-11-21T10:38:35;4.30;;;1.70;;
4313;SDS011;2170;48.794;9.182;2022-11-21T10:41:03;2.70;;;1.40;;
4313;SDS011;2170;48.794;9.182;2022-11-21T10:43:33;2.77;;;1.30;;
4313;SDS011;2170;48.794;9.182;2022-11-21T10:46:19;4.37;;;1.80;;
4313;SDS011;2170;48.794;9.182;2022-11-21T10:48:47;1.83;;;1.40;;
4313;SDS011;2170;48.794;9.182;2022-11-21T10:51:24;2.23;;;1.20;;
4313;SDS011;2170;48.794;9.182;2022-11-21T10:54:03;4.60;;;1.90;;
4313;SDS011;2170;48.794;9.182;2022-11-21T10:56:48;2.10;;;1.43;;
4313;SDS011;2170;48.794;9.182;2022-11-21T10:59:19;3.23;;;1.70;;
4313;SDS011;2170;48.794;9.182;2022-11-21T11:01:53;2.00;;;1.27;;
4313;SDS011;2170;48.794;9.182;2022-11-21T11:04:20;2.10;;;1.40;;
4313;SDS011;2170;48.794;9.182;2022-11-21T11:06:48;3.37;;;1.50;;
4313;SDS011;2170;48.794;9.182;2022-11-21T11:09:22;3.37;;;1.20;;
4313;SDS011;2170;48.794;9.182;2022-11-21T11:11:49;2.33;;;1.60;;
4313;SDS011;2170;48.794;9.182;2022-11-21T11:14:24;2.03;;;1.43;;
4313;SDS011;2170;48.794;9.182;2022-11-21T11:16:53;3.20;;;1.63;;
4313;SDS011;2170;48.794;9.182;2022-11-21T11:19:27;2.60;;;1.40;;
4313;SDS011;2170;48.794;9.182;2022-11-21T11:21:56;2.23;;;1.33;;
4313;SDS011;2170;48.794;9.182;2022-11-21T11:24:24;4.23;;;1.57;;
4313;SDS011;2170;48.794;9.182;2022-11-21T11:26:55;3.37;;;1.50;;
4313;SDS011;2170;48.794;9.182;2022-11-21T11:29:24;3.17;;;1.60;;
4313;SDS011;2170;48.794;9.182;2022-11-21T11:31:52;2.33;;;1.40;;
4313;SDS011;2170;48.794;9.182;2022-11-21T11:34:20;4.57;;;1.60;;
4313;SDS011;2170;48.794;9.182;2022-11-21T11:36:54;3.43;;;2.40;;
4313;SDS011;2170;48.794;9.182;2022-11-21T11:39:28;1.80;;;1.60;;
4313;SDS011;2170;48.794;9.182;2022-11-21T11:45:28;1.53;;;1.43;;
4313;SDS011;2170;48.794;9.182;2022-11-21T11:48:14;3.03;;;1.30;;
4313;SDS011;2170;48.794;9.182;2022-11-21T11:50:44;5.50;;;1.40;;
4313;SDS011;2170;48.794;9.182;2022-11-21T11:53:13;4.90;;;1.80;;
4313;SDS011;2170;48.794;9.182;2022-11-21T11:55:44;1.60;;;1.20;;
4313;SDS011;2170;48.794;9.182;2022-11-21T11:58:15;2.27;;;1.30;;
4313;SDS011;2170;48.794;9.182;2022-11-21T12:00:44;4.70;;;1.60;;
4313;SDS011;2170;48.794;9.182;2022-11-21T12:03:13;4.30;;;1.60;;
4313;SDS011;2170;48.794;9.182;2022-11-21T12:05:44;4.27;;;1.53;;
4313;SDS011;2170;48.794;9.182;2022-11-21T12:08:13;7.60;;;2.47;;
4313;SDS011;2170;48.794;9.182;2022-11-21T12:10:44;2.10;;;1.07;;
4313;SDS011;2170;48.794;9.182;2022-11-21T12:13:31;1.60;;;1.30;;
4313;SDS011;2170;48.794;9.182;2022-11-21T12:16:01;1.30;;;1.20;;
4313;SDS011;2170;48.794;9.182;2022-11-21T12:18:30;4.47;;;1.47;;
4313;SDS011;2170;48.794;9.182;2022-11-21T12:21:02;2.87;;;1.40;;
4313;SDS011;2170;48.794;9.182;2022-11-21T12:23:30;4.40;;;1.50;;
4313;SDS011;2170;48.794;9.182;2022-11-21T12:26:01;4.37;;;1.47;;
4313;SDS011;2170;48.794;9.182;2022-11-21T12:28:33;2.93;;;1.60;;
4313;SDS011;2170;48.794;9.182;2022-11-21T12:31:02;4.70;;;1.77;;
4313;SDS011;2170;48.794;9.182;2022-11-21T12:33:30;1.40;;;1.10;;
4313;SDS011;2170;48.794;9.182;2022-11-21T12:36:10;1.40;;;1.30;;
4313;SDS011;2170;48.794;9.182;2022-11-21T12:38:46;3.10;;;1.33;;
4313;SDS011;2170;48.794;9.182;2022-11-21T12:41:18;1.40;;;1.30;;
4313;SDS011;2170;48.794;9.182;2022-11-21T12:44:08;3.23;;;1.80;;
4313;SDS011;2170;48.794;9.182;2022-11-21T12:46:42;3.90;;;1.60;;
4313;SDS011;2170;48.794;9.182;2022-11-21T12:49:13;3.73;;;1.50;;
4313;SDS011;2170;48.794;9.182;2022-11-21T12:52:11;2.67;;;1.70;;
4313;SDS011;2170;48.794;9.182;2022-11-21T12:55:03;3.60;;;1.40;;
4313;SDS011;2170;48.794;9.182;2022-11-21T12:57:38;4.53;;;2.27;;
4313;SDS011;2170;48.794;9.182;2022-11-21T13:00:09;3.47;;;1.80;;
4313;SDS011;2170;48.794;9.182;2022-11-21T13:02:42;3.57;;;1.77;;
4313;SDS011;2170;48.794;9.182;2022-11-21T13:05:12;3.20;;;1.60;;
4313;SDS011;2170;48.794;9.182;2022-11-21T13:07:42;2.50;;;1.40;;
4313;SDS011;2170;48.794;9.182;2022-11-21T13:10:10;1.10;;;1.00;;
4313;SDS011;2170;48.794;9.182;2022-11-21T13:12:41;2.00;;;1.63;;
4313;SDS011;2170;48.794;9.182;2022-11-21T13:15:17;4.30;;;1.60;;
4313;SDS011;2170;48.794;9.182;2022-11-21T13:17:48;1.37;;;1.00;;
4313;SDS011;2170;48.794;9.182;2022-11-21T13:20:19;2.67;;;1.20;;
4313;SDS011;2170;48.794;9.182;2022-11-21T13:22:57;2.73;;;1.63;;
4313;SDS011;2170;48.794;9.182;2022-11-21T13:25:34;3.60;;;2.47;;
4313;SDS011;2170;48.794;9.182;2022-11-21T13:28:29;2.73;;;1.70;;
4313;SDS011;2170;48.794;9.182;2022-11-21T13:30:58;4.10;;;1.67;;
4313;SDS011;2170;48.794;9.182;2022-11-21T13:33:44;4.33;;;1.50;;
4313;SDS011;2170;48.794;9.182;2022-11-21T13:36:12;3.87;;;1.87;;
4313;SDS011;2170;48.794;9.182;2022-11-21T13:44:39;5.03;;;2.47;;
4313;SDS011;2170;48.794;9.182;2022-11-21T13:47:09;3.43;;;1.30;;
4313;SDS011;2170;48.794;9.182;2022-11-21T13:49:38;2.60;;;1.50;;
4313;SDS011;2170;48.794;9.182;2022-11-21T13:52:10;2.90;;;1.60;;
4313;SDS011;2170;48.794;9.182;2022-11-21T13:54:56;4.83;;;4.00;;
4313;SDS011;2170;48.794;9.182;2022-11-21T13:57:42;2.20;;;1.60;;
4313;SDS011;2170;48.794;9.182;2022-11-21T14:00:19;6.57;;;2.27;;
4313;SDS011;2170;48.794;9.182;2022-11-21T14:02:57;4.17;;;1.73;;
4313;SDS011;2170;48.794;9.182;2022-11-21T14:05:41;3.47;;;1.77;;
4313;SDS011;2170;48.794;9.182;2022-11-21T14:08:13;3.63;;;1.87;;
4313;SDS011;2170;48.794;9.182;2022-11-21T14:10:42;4.60;;;1.60;;
4313;SDS011;2170;48.794;9.182;2022-11-21T14:13:14;1.63;;;1.53;;
4313;SDS011;2170;48.794;9.182;2022-11-21T14:15:45;5.57;;;2.10;;
4313;SDS011;2170;48.794;9.182;2022-11-21T14:18:18;4.30;;;2.53;;
4313;SDS011;2170;48.794;9.182;2022-11-21T14:20:48;3.37;;;1.80;;
4313;SDS011;2170;48.794;9.182;2022-11-21T14:23:17;3.30;;;1.90;;
4313;SDS011;2170;48.794;9.182;2022-11-21T14:25:47;6.87;;;2.00;;
4313;SDS011;2170;48.794;9.182;2022-11-21T14:28:15;5.17;;;1.80;;
4313;SDS011;2170;48.794;9.182;2022-11-21T14:30:44;5.53;;;2.00;;
4313;SDS011;2170;48.794;9.182;2022-11-21T14:33:25;3.10;;;1.67;;
4313;SDS011;2170;48.794;9.182;2022-11-21T14:35:54;5.00;;;2.13;;
4313;SDS011;2170;48.794;9.182;2022-11-21T14:38:21;2.97;;;1.50;;
4313;SDS011;2170;48.794;9.182;2022-11-21T14:40:49;3.77;;;1.73;;
4313;SDS011;2170;48.794;9.182;2022-11-21T14:43:27;4.27;;;1.67;;
4313;SDS011;2170;48.794;9.182;2022-11-21T14:45:56;6.23;;;3.40;;
4313;SDS011;2170;48.794;9.182;2022-11-21T14:48:24;3.90;;;1.93;;
4313;SDS011;2170;48.794;9.182;2022-11-21T14:50:51;4.17;;;1.87;;
4313;SDS011;2170;48.794;9.182;2022-11-21T14:53:19;2.53;;;1.80;;
4313;SDS011;2170;48.794;9.182;2022-11-21T14:55:48;2.17;;;1.67;;
4313;SDS011;2170;48.794;9.182;2022-11-21T14:58:15;3.60;;;2.03;;
4313;SDS011;2170;48.794;9.182;2022-11-21T15:03:26;3.03;;;1.80;;
4313;SDS011;2170;48.794;9.182;2022-11-21T15:05:57;4.13;;;2.27;;
4313;SDS011;2170;48.794;9.182;2022-11-21T15:08:24;4.50;;;1.90;;
4313;SDS011;2170;48.794;9.182;2022-11-21T15:10:51;6.70;;;2.30;;
4313;SDS011;2170;48.794;9.182;2022-11-21T15:13:18;10.33;;;2.73;;
4313;SDS011;2170;48.794;9.182;2022-11-21T15:15:48;9.60;;;2.37;;
4313;SDS011;2170;48.794;9.182;2022-11-21T15:18:18;8.83;;;2.00;;
4313;SDS011;2170;48.794;9.182;2022-11-21T15:20:48;4.10;;;2.00;;
4313;SDS011;2170;48.794;9.182;2022-11-21T15:23:26;6.43;;;2.17;;
4313;SDS011;2170;48.794;9.182;2022-11-21T15:25:53;7.40;;;2.33;;
4313;SDS011;2170;48.794;9.182;2022-11-21T15:28:21;3.93;;;1.90;;
4313;SDS011;2170;48.794;9.182;2022-11-21T15:33:51;3.40;;;2.30;;
4313;SDS011;2170;48.794;9.182;2022-11-21T15:36:19;3.43;;;1.93;;
4313;SDS011;2170;48.794;9.182;2022-11-21T15:38:47;4.70;;;2.10;;
4313;SDS011;2170;48.794;9.182;2022-11-21T15:41:24;3.60;;;2.50;;
4313;SDS011;2170;48.794;9.182;2022-11-21T15:43:52;7.33;;;2.43;;
4313;SDS011;2170;48.794;9.182;2022-11-21T15:46:20;5.63;;;2.37;;
4313;SDS011;2170;48.794;9.182;2022-11-21T15:48:47;6.37;;;1.73;;
4313;SDS011;2170;48.794;9.182;2022-11-21T15:51:15;5.67;;;2.07;;